createdAt,value
2022-10-29T00:02:06.067Z,6.67
2022-10-29T00:04:32.635Z,6.50
2022-10-29T00:06:59.568Z,6.17
2022-10-29T00:09:26.089Z,6.10
2022-10-29T00:11:52.705Z,6.70
2022-10-29T00:14:19.242Z,6.80
2022-10-29T00:16:45.768Z,6.80
2022-10-29T00:19:12.286Z,6.13
2022-10-29T00:21:40.376Z,6.83
2022-10-29T00:24:09.561Z,6.27
2022-10-29T00:26:36.155Z,5.93
2022-10-29T00:29:02.778Z,6.10
2022-10-29T00:31:29.452Z,6.37
2022-10-29T00:33:56.048Z,6.13
2022-10-29T00:36:26.723Z,6.00
2022-10-29T00:38:53.897Z,6.90
2022-10-29T00:46:18.235Z,5.43
2022-10-29T00:48:50.673Z,6.43
2022-10-29T00:51:17.872Z,6.40
2022-10-29T00:53:54.337Z,5.90
2022-10-29T00:56:22.503Z,6.20
2022-10-29T00:58:49.232Z,5.37
2022-10-29T01:01:15.915Z,7.33
2022-10-29T01:03:43.156Z,6.47
2022-10-29T01:06:09.953Z,6.30
2022-10-29T01:08:36.547Z,6.33
2022-10-29T01:11:11.233Z,6.80
2022-10-29T01:13:50.166Z,6.43
2022-10-29T01:16:31.925Z,5.30
2022-10-29T01:19:08.449Z,7.07
2022-10-29T01:21:39.742Z,5.90
2022-10-29T01:24:29.166Z,6.20
2022-10-29T01:27:21.774Z,6.43
2022-10-29T01:30:11.098Z,6.77
2022-10-29T01:32:46.286Z,5.50
2022-10-29T01:35:30.262Z,5.70
2022-10-29T01:38:21.978Z,6.30
2022-10-29T01:41:07.356Z,6.57
2022-10-29T01:43:40.734Z,6.10
2022-10-29T01:46:16.569Z,8.40
2022-10-29T01:48:46.993Z,6.00
2022-10-29T01:51:30.474Z,6.40
2022-10-29T01:53:59.853Z,5.97
2022-10-29T01:56:26.403Z,6.20
2022-10-29T01:58:57.130Z,6.07
2022-10-29T02:01:35.680Z,7.80
2022-10-29T02:04:32.210Z,6.60
2022-10-29T02:07:17.534Z,6.73
2022-10-29T02:10:19.922Z,5.50
2022-10-29T02:12:48.761Z,5.43
2022-10-29T02:15:20.725Z,5.77
2022-10-29T02:17:47.680Z,5.90
2022-10-29T02:20:15.507Z,7.33
2022-10-29T02:22:42.183Z,6.73
2022-10-29T02:25:09.969Z,6.70
2022-10-29T02:27:36.853Z,6.77
2022-10-29T02:30:04.414Z,6.50
2022-10-29T02:32:32.507Z,7.40
2022-10-29T02:35:00.972Z,6.03
2022-10-29T02:37:28.895Z,5.80
2022-10-29T02:39:55.433Z,6.60
2022-10-29T02:42:22.194Z,6.10
2022-10-29T02:44:49.592Z,5.93
2022-10-29T02:47:16.339Z,6.30
2022-10-29T02:49:43.253Z,6.10
2022-10-29T02:52:09.916Z,6.17
2022-10-29T02:54:36.448Z,8.10
2022-10-29T02:57:03.533Z,5.90
2022-10-29T02:59:30.060Z,6.60
2022-10-29T03:01:56.733Z,6.30
2022-10-29T03:04:23.402Z,6.30
2022-10-29T03:06:50.009Z,5.83
2022-10-29T03:09:16.569Z,6.47
2022-10-29T03:11:43.111Z,7.20
2022-10-29T03:14:09.645Z,6.57
2022-10-29T03:16:36.598Z,6.77
2022-10-29T03:19:03.588Z,6.57
2022-10-29T03:21:30.109Z,6.83
2022-10-29T03:23:56.734Z,5.97
2022-10-29T03:26:23.284Z,6.60
2022-10-29T03:28:49.859Z,6.57
2022-10-29T03:31:16.492Z,6.27
2022-10-29T03:33:43.036Z,6.30
2022-10-29T03:36:09.820Z,6.67
2022-10-29T03:38:36.501Z,6.50
2022-10-29T03:41:08.470Z,6.63
2022-10-29T03:43:37.021Z,7.60
2022-10-29T03:46:04.067Z,7.13
2022-10-29T03:48:30.646Z,7.17
2022-10-29T03:51:01.557Z,6.40
2022-10-29T03:53:29.449Z,8.30
2022-10-29T03:55:57.171Z,7.57
2022-10-29T03:58:24.846Z,7.20
2022-10-29T04:01:02.541Z,7.43
2022-10-29T04:03:31.118Z,6.20
2022-10-29T04:05:59.348Z,5.83
2022-10-29T04:08:26.088Z,6.40
2022-10-29T04:10:53.180Z,7.10
2022-10-29T04:13:20.710Z,6.97
2022-10-29T04:15:47.504Z,7.90
2022-10-29T04:18:14.814Z,7.20
2022-10-29T04:20:57.043Z,6.67
2022-10-29T04:29:02.883Z,6.87
2022-10-29T04:31:29.423Z,6.40
2022-10-29T04:33:55.958Z,7.57
2022-10-29T04:36:22.536Z,6.33
2022-10-29T04:38:50.204Z,6.63
2022-10-29T04:41:16.815Z,6.13
2022-10-29T04:43:43.786Z,5.63
2022-10-29T04:46:11.314Z,5.40
2022-10-29T04:48:38.210Z,6.40
2022-10-29T04:51:05.222Z,6.43
2022-10-29T04:53:32.336Z,6.20
2022-10-29T04:56:01.303Z,6.57
2022-10-29T04:58:28.174Z,6.40
2022-10-29T05:01:00.360Z,7.13
2022-10-29T05:03:26.988Z,6.00
2022-10-29T05:05:53.818Z,6.10
2022-10-29T05:08:21.477Z,5.73
2022-10-29T05:10:48.155Z,6.90
2022-10-29T05:13:14.773Z,8.70
2022-10-29T05:15:42.066Z,9.00
2022-10-29T05:18:10.113Z,11.20
2022-10-29T05:20:36.659Z,12.73
2022-10-29T05:23:08.225Z,9.63
2022-10-29T05:25:37.602Z,10.13
2022-10-29T05:28:06.419Z,11.73
2022-10-29T05:30:34.262Z,8.17
2022-10-29T05:33:00.819Z,9.17
2022-10-29T05:35:27.798Z,9.40
2022-10-29T05:37:55.639Z,9.93
2022-10-29T05:40:24.127Z,8.13
2022-10-29T05:42:50.769Z,8.50
2022-10-29T05:45:17.856Z,8.57
2022-10-29T05:47:44.627Z,7.87
2022-10-29T05:50:12.614Z,6.80
2022-10-29T05:52:40.043Z,9.00
2022-10-29T05:55:06.993Z,8.80
2022-10-29T05:57:33.520Z,7.90
2022-10-29T06:00:00.039Z,7.60
2022-10-29T06:02:26.688Z,7.30
2022-10-29T06:04:53.328Z,7.10
2022-10-29T06:07:19.936Z,7.23
2022-10-29T06:09:46.505Z,7.27
2022-10-29T06:12:13.018Z,7.37
2022-10-29T06:14:39.584Z,7.00
2022-10-29T06:17:06.113Z,7.57
2022-10-29T06:19:32.913Z,7.97
2022-10-29T06:22:00.648Z,7.67
2022-10-29T06:24:27.982Z,7.50
2022-10-29T06:26:54.779Z,6.80
2022-10-29T06:29:21.344Z,8.43
2022-10-29T06:31:47.892Z,8.63
2022-10-29T06:34:14.814Z,8.00
2022-10-29T06:36:41.574Z,8.13
2022-10-29T06:39:08.197Z,8.50
2022-10-29T06:41:34.756Z,8.80
2022-10-29T06:44:01.621Z,8.93
2022-10-29T06:46:28.249Z,9.27
2022-10-29T06:48:54.919Z,10.70
2022-10-29T06:53:54.743Z,9.93
2022-10-29T06:56:22.066Z,13.47
2022-10-29T06:58:49.583Z,13.23
2022-10-29T07:01:16.208Z,17.10
2022-10-29T07:03:42.804Z,13.80
2022-10-29T07:06:09.337Z,10.40
2022-10-29T07:08:35.890Z,9.60
2022-10-29T07:11:02.924Z,10.57
2022-10-29T07:13:29.644Z,8.20
2022-10-29T07:15:56.194Z,7.90
2022-10-29T07:18:22.801Z,7.90
2022-10-29T07:20:49.704Z,7.77
2022-10-29T07:23:16.347Z,7.30
2022-10-29T07:25:44.149Z,7.27
2022-10-29T07:28:12.541Z,7.37
2022-10-29T07:30:40.077Z,7.10
2022-10-29T07:33:06.718Z,6.50
2022-10-29T07:35:34.694Z,5.93
2022-10-29T07:38:07.303Z,6.60
2022-10-29T07:40:40.967Z,5.63
2022-10-29T07:43:09.044Z,6.03
2022-10-29T07:45:35.578Z,6.37
2022-10-29T07:48:04.796Z,6.33
2022-10-29T07:50:32.038Z,7.00
2022-10-29T07:53:00.279Z,8.53
2022-10-29T07:58:02.842Z,5.70
2022-10-29T08:00:30.505Z,5.30
2022-10-29T08:02:58.011Z,5.70
2022-10-29T08:05:26.261Z,8.03
2022-10-29T08:07:54.909Z,6.63
2022-10-29T08:10:23.263Z,6.30
2022-10-29T08:12:51.333Z,8.50
2022-10-29T08:15:19.696Z,8.30
2022-10-29T08:17:46.670Z,7.20
2022-10-29T08:20:14.494Z,6.73
2022-10-29T08:22:41.324Z,7.23
2022-10-29T08:25:08.433Z,6.57
2022-10-29T08:27:35.043Z,6.50
2022-10-29T08:30:01.720Z,7.77
2022-10-29T08:32:28.257Z,6.53
2022-10-29T08:34:56.105Z,6.43
2022-10-29T08:37:22.821Z,7.40
2022-10-29T08:39:49.405Z,6.97
2022-10-29T08:42:31.014Z,8.00
2022-10-29T08:45:18.998Z,7.03
2022-10-29T08:48:21.901Z,9.33
2022-10-29T08:50:57.035Z,7.53
2022-10-29T08:53:33.989Z,7.70
2022-10-29T08:56:00.720Z,8.03
2022-10-29T08:58:30.186Z,6.97
2022-10-29T09:00:58.555Z,7.87
2022-10-29T09:03:29.883Z,7.93
2022-10-29T09:06:07.101Z,8.50
2022-10-29T09:08:54.913Z,8.37
2022-10-29T09:11:32.889Z,9.93
2022-10-29T09:14:36.335Z,8.93
2022-10-29T09:17:39.598Z,8.75
2022-10-29T09:20:23.087Z,9.05
2022-10-29T09:23:02.242Z,9.23
2022-10-29T09:25:33.069Z,9.00
2022-10-29T09:28:05.412Z,9.20
2022-10-29T09:30:50.960Z,8.75
2022-10-29T09:33:22.793Z,8.85
2022-10-29T09:35:54.597Z,9.90
2022-10-29T09:38:29.318Z,9.50
2022-10-29T09:41:02.303Z,8.50
2022-10-29T09:43:54.526Z,8.60
2022-10-29T09:46:40.377Z,9.30
2022-10-29T09:49:25.870Z,9.23
2022-10-29T09:51:58.430Z,8.70
2022-10-29T09:54:27.118Z,9.00
2022-10-29T09:56:56.167Z,7.90
2022-10-29T10:00:00.462Z,9.07
2022-10-29T10:02:33.350Z,8.60
2022-10-29T10:05:24.938Z,7.90
2022-10-29T10:08:10.141Z,7.90
2022-10-29T10:10:50.678Z,8.17
2022-10-29T10:13:19.737Z,7.50
2022-10-29T10:15:56.453Z,6.93
2022-10-29T10:18:38.290Z,7.37
2022-10-29T10:21:09.427Z,7.67
2022-10-29T10:23:41.059Z,5.83
2022-10-29T10:26:32.879Z,6.90
2022-10-29T10:29:11.912Z,7.30
2022-10-29T10:31:43.316Z,7.27
2022-10-29T10:34:23.199Z,5.87
2022-10-29T10:36:55.595Z,5.43
2022-10-29T10:39:38.759Z,5.53
2022-10-29T10:42:15.893Z,5.20
2022-10-29T10:44:52.157Z,5.87
2022-10-29T10:47:22.068Z,5.40
2022-10-29T10:49:49.189Z,6.03
2022-10-29T10:52:21.531Z,5.73
2022-10-29T10:54:59.643Z,4.30
2022-10-29T10:57:32.395Z,4.90
2022-10-29T11:00:04.709Z,4.70
2022-10-29T11:02:50.916Z,5.43
2022-10-29T11:05:29.361Z,5.67
2022-10-29T11:08:06.898Z,5.07
2022-10-29T11:10:43.872Z,5.93
2022-10-29T11:13:16.223Z,5.20
2022-10-29T11:16:01.623Z,5.20
2022-10-29T11:18:39.929Z,6.10
2022-10-29T11:21:14.973Z,5.60
2022-10-29T11:24:02.264Z,6.20
2022-10-29T11:26:35.573Z,6.00
2022-10-29T11:29:12.733Z,5.90
2022-10-29T11:32:01.977Z,6.33
2022-10-29T11:34:44.325Z,7.13
2022-10-29T11:37:10.874Z,6.47
2022-10-29T11:39:49.260Z,7.10
2022-10-29T11:42:15.968Z,6.47
2022-10-29T11:44:42.643Z,6.90
2022-10-29T11:47:28.301Z,6.03
2022-10-29T11:50:16.853Z,6.27
2022-10-29T11:53:03.711Z,7.40
2022-10-29T11:56:03.671Z,8.40
2022-10-29T11:58:40.990Z,7.07
2022-10-29T12:01:51.633Z,7.13
2022-10-29T12:04:53.871Z,7.70
2022-10-29T12:07:39.015Z,7.00
2022-10-29T12:10:19.282Z,7.20
2022-10-29T12:13:12.295Z,7.87
2022-10-29T12:15:51.145Z,6.93
2022-10-29T12:18:41.499Z,7.50
2022-10-29T12:21:23.182Z,7.10
2022-10-29T12:24:07.204Z,6.33
2022-10-29T12:26:42.590Z,7.93
2022-10-29T12:30:05.304Z,7.03
2022-10-29T12:32:38.856Z,8.17
2022-10-29T12:35:46.041Z,8.13
2022-10-29T12:38:34.683Z,6.83
2022-10-29T12:41:19.193Z,8.60
2022-10-29T12:43:46.416Z,8.03
2022-10-29T12:46:34.724Z,8.73
2022-10-29T12:49:31.469Z,8.03
2022-10-29T12:52:07.560Z,7.43
2022-10-29T12:54:41.958Z,8.83
2022-10-29T12:57:14.713Z,9.00
2022-10-29T12:59:43.255Z,8.00
2022-10-29T13:02:21.808Z,7.87
2022-10-29T13:05:09.813Z,8.10
2022-10-29T13:07:45.718Z,7.93
2022-10-29T13:10:29.556Z,8.23
2022-10-29T13:13:15.379Z,8.63
2022-10-29T13:15:59.482Z,9.30
2022-10-29T13:18:44.445Z,8.10
2022-10-29T13:21:11.148Z,8.97
2022-10-29T13:23:37.914Z,8.77
2022-10-29T13:26:06.394Z,8.20
2022-10-29T13:28:35.604Z,8.90
2022-10-29T13:31:08.138Z,8.63
2022-10-29T13:33:37.474Z,8.00
2022-10-29T13:36:18.980Z,8.43
2022-10-29T13:39:05.798Z,8.60
2022-10-29T13:41:53.973Z,9.60
2022-10-29T13:44:24.110Z,8.90
2022-10-29T13:47:16.888Z,7.73
2022-10-29T13:49:46.298Z,9.37
2022-10-29T13:52:19.254Z,8.50
2022-10-29T13:55:00.320Z,7.67
2022-10-29T13:57:48.228Z,9.83
2022-10-29T14:00:21.115Z,8.23
2022-10-29T14:03:15.025Z,7.47
2022-10-29T14:05:56.805Z,7.90
2022-10-29T14:08:34.643Z,8.20
2022-10-29T14:11:07.604Z,8.33
2022-10-29T14:13:52.953Z,7.17
2022-10-29T14:16:29.377Z,8.10
2022-10-29T14:18:56.174Z,7.83
2022-10-29T14:21:30.966Z,9.23
2022-10-29T14:24:05.352Z,7.87
2022-10-29T14:26:34.374Z,8.90
2022-10-29T14:29:22.074Z,8.27
2022-10-29T14:32:07.588Z,8.03
2022-10-29T14:34:34.252Z,8.67
2022-10-29T14:37:32.935Z,9.27
2022-10-29T14:40:04.006Z,8.70
2022-10-29T14:42:34.329Z,9.17
2022-10-29T14:45:04.800Z,8.20
2022-10-29T14:47:37.014Z,9.07
2022-10-29T14:50:14.752Z,9.07
2022-10-29T14:52:48.559Z,9.60
2022-10-29T14:55:26.305Z,8.50
2022-10-29T14:58:07.756Z,9.10
2022-10-29T15:00:38.565Z,8.40
2022-10-29T15:03:08.510Z,10.13
2022-10-29T15:05:37.173Z,11.57
2022-10-29T15:08:04.616Z,11.63
2022-10-29T15:10:31.641Z,11.47
2022-10-29T15:12:58.504Z,11.40
2022-10-29T15:15:28.935Z,13.03
2022-10-29T15:18:01.477Z,17.47
2022-10-29T15:20:39.994Z,12.00
2022-10-29T15:23:19.409Z,11.60
2022-10-29T15:25:49.248Z,10.57
2022-10-29T15:28:24.877Z,9.83
2022-10-29T15:30:51.664Z,9.67
2022-10-29T15:33:22.910Z,10.20
2022-10-29T15:35:53.898Z,10.67
2022-10-29T15:38:51.995Z,10.50
2022-10-29T15:41:19.505Z,9.33
2022-10-29T15:43:56.997Z,9.63
2022-10-29T15:46:29.356Z,10.50
2022-10-29T15:48:56.086Z,10.70
2022-10-29T15:51:27.903Z,10.30
2022-10-29T15:53:56.367Z,10.87
2022-10-29T15:56:24.291Z,11.20
2022-10-29T15:58:52.375Z,9.27
2022-10-29T16:01:19.051Z,11.30
2022-10-29T16:03:45.974Z,11.67
2022-10-29T16:06:12.825Z,11.87
2022-10-29T16:08:51.293Z,11.23
2022-10-29T16:11:22.486Z,10.60
2022-10-29T16:13:54.498Z,9.30
2022-10-29T16:16:24.257Z,10.70
2022-10-29T16:18:52.552Z,11.00
2022-10-29T16:21:22.662Z,14.97
2022-10-29T16:23:50.391Z,13.40
2022-10-29T16:26:20.106Z,12.17
2022-10-29T16:28:47.225Z,12.73
2022-10-29T16:31:29.685Z,11.87
2022-10-29T16:34:03.296Z,14.33
2022-10-29T16:36:30.199Z,13.17
2022-10-29T16:38:56.851Z,12.07
2022-10-29T16:41:23.509Z,12.87
2022-10-29T16:43:50.325Z,11.07
2022-10-29T16:46:17.132Z,11.00
2022-10-29T16:48:44.295Z,7.90
2022-10-29T16:51:10.818Z,9.27
2022-10-29T16:53:37.760Z,11.30
2022-10-29T16:56:04.751Z,13.40
2022-10-29T16:58:31.346Z,12.67
2022-10-29T17:01:05.474Z,10.57
2022-10-29T17:03:33.494Z,10.23
2022-10-29T17:06:10.674Z,11.20
2022-10-29T17:08:37.930Z,10.67
2022-10-29T17:11:06.312Z,11.27
2022-10-29T17:13:33.822Z,10.40
2022-10-29T17:16:00.345Z,10.90
2022-10-29T17:18:26.953Z,11.00
2022-10-29T17:20:58.524Z,10.37
2022-10-29T17:23:25.582Z,10.80
2022-10-29T17:25:53.962Z,10.87
2022-10-29T17:28:21.971Z,11.20
2022-10-29T17:30:48.732Z,11.10
2022-10-29T17:33:16.446Z,10.13
2022-10-29T17:35:44.163Z,12.53
2022-10-29T17:38:11.647Z,13.13
2022-10-29T17:40:38.785Z,10.23
2022-10-29T17:43:05.977Z,9.80
2022-10-29T17:45:32.666Z,9.83
2022-10-29T17:47:59.986Z,10.07
2022-10-29T17:50:27.118Z,9.50
2022-10-29T17:52:54.647Z,9.03
2022-10-29T17:55:21.702Z,8.53
2022-10-29T17:57:48.429Z,9.83
2022-10-29T18:00:15.555Z,9.60
2022-10-29T18:02:42.516Z,9.27
2022-10-29T18:05:09.459Z,9.90
2022-10-29T18:07:36.189Z,11.10
2022-10-29T18:10:03.296Z,10.93
2022-10-29T18:12:30.536Z,10.70
2022-10-29T18:14:57.215Z,10.40
2022-10-29T18:17:24.821Z,9.67
2022-10-29T18:19:51.534Z,11.40
2022-10-29T18:22:18.243Z,13.57
2022-10-29T18:24:45.210Z,13.13
2022-10-29T18:27:11.908Z,11.17
2022-10-29T18:29:39.057Z,11.10
2022-10-29T18:32:05.662Z,9.67
2022-10-29T18:34:34.074Z,10.03
2022-10-29T18:37:01.010Z,10.60
2022-10-29T18:39:27.626Z,11.33
2022-10-29T18:41:54.685Z,10.70
2022-10-29T18:44:21.197Z,11.13
2022-10-29T18:46:47.720Z,10.27
2022-10-29T18:49:14.624Z,10.27
2022-10-29T18:51:41.302Z,9.57
2022-10-29T18:54:10.735Z,10.77
2022-10-29T18:56:37.765Z,9.87
2022-10-29T18:59:04.820Z,9.53
2022-10-29T19:01:33.447Z,9.87
2022-10-29T19:04:02.594Z,8.07
2022-10-29T19:06:31.279Z,9.60
2022-10-29T19:09:00.839Z,9.20
2022-10-29T19:11:27.901Z,8.70
2022-10-29T19:14:00.027Z,7.67
2022-10-29T19:16:29.501Z,8.77
2022-10-29T19:19:01.087Z,9.07
2022-10-29T19:21:28.009Z,9.30
2022-10-29T19:23:58.859Z,24.70
2022-10-29T19:26:27.830Z,22.43
2022-10-29T19:28:54.464Z,13.90
2022-10-29T19:31:26.515Z,14.10
2022-10-29T19:33:58.355Z,13.83
2022-10-29T19:36:26.415Z,13.43
2022-10-29T19:38:53.141Z,13.27
2022-10-29T19:41:20.008Z,13.20
2022-10-29T19:43:46.890Z,15.50
2022-10-29T19:46:17.367Z,14.03
2022-10-29T19:48:49.505Z,13.67
2022-10-29T19:51:16.150Z,14.70
2022-10-29T19:53:42.942Z,12.60
2022-10-29T19:56:15.343Z,14.10
2022-10-29T19:58:42.335Z,13.70
2022-10-29T20:01:12.317Z,13.67
2022-10-29T20:03:39.068Z,13.87
2022-10-29T20:06:09.003Z,12.77
2022-10-29T20:08:36.694Z,14.10
2022-10-29T20:11:04.254Z,11.90
2022-10-29T20:13:31.132Z,11.40
2022-10-29T20:15:58.194Z,13.83
2022-10-29T20:18:25.982Z,12.10
2022-10-29T20:20:58.472Z,12.13
2022-10-29T20:23:27.737Z,12.13
2022-10-29T20:25:54.266Z,13.03
2022-10-29T20:28:20.939Z,14.50
2022-10-29T20:30:47.574Z,26.77
2022-10-29T20:33:14.120Z,19.57
2022-10-29T20:35:40.932Z,17.53
2022-10-29T20:38:07.648Z,15.20
2022-10-29T20:40:34.571Z,12.07
2022-10-29T20:43:01.188Z,12.30
2022-10-29T20:45:27.819Z,12.50
2022-10-29T20:47:54.643Z,14.67
2022-10-29T20:50:21.706Z,12.77
2022-10-29T20:52:50.390Z,10.70
2022-10-29T20:55:16.997Z,11.43
2022-10-29T20:57:43.836Z,11.80
2022-10-29T21:00:10.850Z,10.27
2022-10-29T21:02:37.555Z,10.67
2022-10-29T21:05:04.629Z,11.93
2022-10-29T21:07:31.228Z,11.67
2022-10-29T21:09:57.744Z,10.33
2022-10-29T21:12:24.418Z,13.30
2022-10-29T21:14:51.002Z,11.70
2022-10-29T21:17:17.532Z,14.60
2022-10-29T21:19:44.124Z,11.80
2022-10-29T21:22:11.220Z,11.03
2022-10-29T21:24:39.295Z,9.43
2022-10-29T21:27:09.911Z,10.17
2022-10-29T21:29:36.604Z,10.13
2022-10-29T21:32:03.981Z,8.50
2022-10-29T21:34:30.534Z,8.80
2022-10-29T21:36:57.180Z,9.63
2022-10-29T21:39:23.714Z,9.20
2022-10-29T21:41:50.627Z,9.83
2022-10-29T21:44:17.851Z,9.27
2022-10-29T21:46:44.425Z,7.80
2022-10-29T21:49:10.950Z,8.60
2022-10-29T21:51:37.617Z,8.80
2022-10-29T21:54:04.329Z,8.70
2022-10-29T21:56:30.888Z,7.50
2022-10-29T21:58:57.441Z,8.33
2022-10-29T22:01:24.417Z,9.80
2022-10-29T22:03:51.595Z,10.13
2022-10-29T22:06:21.239Z,9.43
2022-10-29T22:08:52.219Z,10.90
2022-10-29T22:11:19.051Z,10.90
2022-10-29T22:13:45.636Z,10.50
2022-10-29T22:16:12.717Z,12.47
2022-10-29T22:18:39.668Z,10.77
2022-10-29T22:21:16.943Z,11.27
2022-10-29T22:23:46.840Z,9.53
2022-10-29T22:26:15.515Z,10.60
2022-10-29T22:28:43.168Z,10.50
2022-10-29T22:31:10.145Z,9.90
2022-10-29T22:33:36.761Z,9.70
2022-10-29T22:36:11.015Z,9.73
2022-10-29T22:38:37.844Z,9.40
2022-10-29T22:41:09.897Z,11.30
2022-10-29T22:43:37.385Z,9.53
2022-10-29T22:46:05.579Z,9.93
2022-10-29T22:48:32.469Z,10.47
2022-10-29T22:51:20.138Z,9.60
2022-10-29T22:53:47.003Z,9.90
2022-10-29T22:56:14.798Z,10.03
2022-10-29T22:58:42.038Z,9.33
2022-10-29T23:01:11.145Z,8.80
2022-10-29T23:03:39.083Z,8.97
2022-10-29T23:06:08.599Z,9.27
2022-10-29T23:08:35.501Z,9.33
2022-10-29T23:11:12.564Z,9.50
2022-10-29T23:13:39.178Z,9.73
2022-10-29T23:16:06.341Z,8.80
2022-10-29T23:18:32.923Z,8.00
2022-10-29T23:21:05.060Z,8.30
2022-10-29T23:23:32.496Z,8.90
2022-10-29T23:26:02.223Z,7.90
2022-10-29T23:28:33.536Z,8.07
2022-10-29T23:31:02.789Z,8.80
2022-10-29T23:33:30.967Z,9.07
2022-10-29T23:36:05.061Z,8.37
2022-10-29T23:38:32.094Z,7.20
2022-10-29T23:40:58.925Z,8.77
2022-10-29T23:43:25.614Z,7.67
2022-10-29T23:45:53.229Z,8.60
2022-10-29T23:48:20.417Z,8.10
2022-10-29T23:50:46.998Z,8.97
2022-10-29T23:53:14.105Z,9.87
2022-10-29T23:55:42.489Z,8.27
2022-10-29T23:58:10.015Z,9.67
